createdAt,value
2023-05-05T00:00:11.752Z,223.80
2023-05-05T00:01:11.834Z,223.95
2023-05-05T00:02:11.726Z,224.10
2023-05-05T00:03:12.675Z,224.72
2023-05-05T00:04:11.837Z,223.80
2023-05-05T00:05:11.710Z,223.95
2023-05-05T00:06:11.674Z,224.41
2023-05-05T00:07:11.697Z,224.87
2023-05-05T00:08:11.644Z,223.80
2023-05-05T00:09:12.623Z,225.02
2023-05-05T00:10:11.619Z,225.18
2023-05-05T00:11:11.673Z,224.72
2023-05-05T00:12:11.742Z,224.87
2023-05-05T00:13:11.737Z,224.10
2023-05-05T00:14:12.612Z,225.49
2023-05-05T00:15:11.827Z,226.57
2023-05-05T00:16:11.610Z,225.64
2023-05-05T00:17:11.629Z,226.73
2023-05-05T00:18:11.620Z,226.41
2023-05-05T00:19:11.562Z,222.89
2023-05-05T00:20:12.474Z,222.74
2023-05-05T00:21:11.698Z,225.64
2023-05-05T00:22:11.497Z,225.79
2023-05-05T00:23:11.509Z,225.95
2023-05-05T00:24:11.468Z,225.95
2023-05-05T00:25:11.485Z,227.67
2023-05-05T00:26:12.360Z,228.77
2023-05-05T00:27:11.504Z,227.35
2023-05-05T00:28:11.410Z,228.46
2023-05-05T00:29:11.407Z,223.80
2023-05-05T00:30:11.335Z,227.04
2023-05-05T00:31:11.455Z,226.73
2023-05-05T00:32:12.332Z,224.87
2023-05-05T00:33:11.370Z,225.49
2023-05-05T00:34:12.045Z,226.41
2023-05-05T00:35:11.268Z,225.49
2023-05-05T00:36:11.307Z,225.64
2023-05-05T00:37:12.297Z,228.93
2023-05-05T00:38:11.275Z,227.51
2023-05-05T00:39:11.364Z,228.77
2023-05-05T00:40:11.238Z,228.30
2023-05-05T00:41:11.251Z,231.02
2023-05-05T00:42:12.249Z,228.46
2023-05-05T00:43:11.249Z,229.25
2023-05-05T00:44:11.202Z,226.57
2023-05-05T00:45:11.147Z,226.10
2023-05-05T00:46:11.189Z,227.04
2023-05-05T00:47:12.109Z,228.14
2023-05-05T00:48:11.250Z,227.04
2023-05-05T00:49:11.204Z,231.02
2023-05-05T00:50:11.103Z,226.88
2023-05-05T00:51:11.141Z,226.73
2023-05-05T00:52:12.076Z,230.38
2023-05-05T00:53:11.097Z,230.54
2023-05-05T00:54:11.111Z,228.93
2023-05-05T00:55:11.788Z,229.73
2023-05-05T00:56:11.070Z,227.20
2023-05-05T00:57:12.755Z,228.62
2023-05-05T00:58:11.171Z,228.14
2023-05-05T00:59:10.993Z,227.82
2023-05-05T01:00:11.026Z,227.82
2023-05-05T01:01:11.175Z,227.82
2023-05-05T01:02:10.940Z,228.30
2023-05-05T01:03:12.034Z,228.46
2023-05-05T01:04:11.101Z,229.25
2023-05-05T01:05:10.984Z,227.82
2023-05-05T01:06:10.899Z,231.67
2023-05-05T01:07:10.884Z,231.51
2023-05-05T01:08:10.988Z,228.77
2023-05-05T01:09:11.876Z,228.93
2023-05-05T01:10:19.800Z,230.05
2023-05-05T01:11:12.426Z,228.77
2023-05-05T01:12:10.825Z,229.09
2023-05-05T01:13:10.850Z,228.77
2023-05-05T01:14:17.195Z,229.09
2023-05-05T01:15:10.768Z,232.32
2023-05-05T01:16:11.003Z,229.73
2023-05-05T01:17:10.760Z,228.30
2023-05-05T01:18:10.790Z,229.73
2023-05-05T01:19:10.721Z,229.25
2023-05-05T01:20:11.707Z,229.41
2023-05-05T01:21:10.722Z,229.57
2023-05-05T01:22:10.680Z,229.89
2023-05-05T01:23:10.688Z,230.54
2023-05-05T01:24:10.714Z,230.70
2023-05-05T01:25:11.603Z,230.05
2023-05-05T01:26:10.731Z,230.38
2023-05-05T01:27:10.668Z,230.21
2023-05-05T01:28:10.625Z,230.54
2023-05-05T01:29:10.651Z,230.38
2023-05-05T01:30:10.710Z,230.54
2023-05-05T01:31:11.583Z,230.38
2023-05-05T01:32:10.564Z,230.21
2023-05-05T01:33:10.584Z,230.70
2023-05-05T01:34:10.599Z,231.02
2023-05-05T01:35:10.626Z,231.18
2023-05-05T01:36:11.451Z,230.86
2023-05-05T01:37:10.639Z,230.70
2023-05-05T01:38:10.522Z,230.86
2023-05-05T01:39:10.572Z,231.02
2023-05-05T01:40:10.495Z,231.02
2023-05-05T01:41:10.629Z,232.65
2023-05-05T01:42:11.517Z,231.51
2023-05-05T01:43:10.476Z,231.83
2023-05-05T01:44:10.425Z,231.67
2023-05-05T01:45:10.431Z,232.32
2023-05-05T01:46:10.413Z,232.49
2023-05-05T01:47:11.429Z,232.82
2023-05-05T01:48:10.360Z,233.98
2023-05-05T01:49:10.374Z,231.18
2023-05-05T01:50:10.538Z,232.16
2023-05-05T01:51:10.438Z,232.65
2023-05-05T01:52:11.379Z,232.65
2023-05-05T01:53:10.770Z,233.15
2023-05-05T01:54:10.479Z,233.64
2023-05-05T01:55:10.355Z,232.98
2023-05-05T01:56:10.588Z,232.82
2023-05-05T01:57:10.343Z,233.81
2023-05-05T01:58:11.214Z,232.82
2023-05-05T01:59:10.469Z,232.98
2023-05-05T02:00:10.428Z,233.31
2023-05-05T02:01:10.320Z,233.48
2023-05-05T02:02:10.237Z,233.98
2023-05-05T02:03:10.389Z,232.49
2023-05-05T02:04:11.096Z,233.48
2023-05-05T02:05:10.383Z,233.31
2023-05-05T02:06:10.231Z,234.31
2023-05-05T02:07:10.181Z,233.15
2023-05-05T02:08:10.246Z,234.31
2023-05-05T02:09:10.349Z,233.81
2023-05-05T02:10:11.029Z,233.98
2023-05-05T02:11:10.118Z,233.98
2023-05-05T02:12:10.172Z,234.31
2023-05-05T02:13:10.192Z,235.15
2023-05-05T02:14:10.086Z,235.48
2023-05-05T02:15:10.039Z,234.98
2023-05-05T02:16:11.034Z,234.31
2023-05-05T02:17:10.051Z,234.31
2023-05-05T02:18:10.131Z,233.48
2023-05-05T02:19:10.149Z,234.64
2023-05-05T02:20:10.096Z,235.99
2023-05-05T02:21:10.911Z,235.65
2023-05-05T02:22:09.983Z,235.15
2023-05-05T02:23:10.056Z,235.15
2023-05-05T02:24:10.049Z,236.16
2023-05-05T02:25:09.935Z,235.31
2023-05-05T02:26:09.914Z,236.33
2023-05-05T02:27:10.809Z,235.48
2023-05-05T02:29:07.433Z,358.92
2023-05-05T02:30:07.630Z,310.23
2023-05-05T02:31:07.477Z,286.98
2023-05-05T02:32:07.319Z,273.86
2023-05-05T02:33:07.289Z,264.83
2023-05-05T02:34:07.286Z,258.80
2023-05-05T02:35:07.283Z,254.79
2023-05-05T02:36:07.275Z,252.64
2023-05-05T02:37:07.248Z,249.20
2023-05-05T02:38:13.472Z,246.04
2023-05-05T02:39:07.269Z,245.67
2023-05-05T02:40:08.393Z,243.85
2023-05-05T02:41:07.270Z,243.67
2023-05-05T02:42:07.231Z,241.35
2023-05-05T02:43:07.218Z,242.24
2023-05-05T02:44:08.152Z,240.82
2023-05-05T02:45:07.182Z,241.52
2023-05-05T02:46:07.254Z,240.64
2023-05-05T02:47:07.109Z,239.42
2023-05-05T02:48:07.212Z,240.12
2023-05-05T02:49:08.041Z,239.42
2023-05-05T02:50:07.261Z,240.29
2023-05-05T02:51:07.062Z,239.07
2023-05-05T02:52:07.068Z,239.42
2023-05-05T02:53:07.077Z,238.55
2023-05-05T02:54:08.061Z,239.24
2023-05-05T02:55:07.048Z,238.72
2023-05-05T02:56:07.049Z,238.55
2023-05-05T02:57:07.000Z,239.42
2023-05-05T02:58:06.978Z,237.86
2023-05-05T02:59:06.986Z,238.90
2023-05-05T03:00:08.081Z,237.18
2023-05-05T03:01:06.974Z,239.24
2023-05-05T03:02:06.929Z,237.86
2023-05-05T03:03:07.085Z,238.90
2023-05-05T03:04:06.890Z,237.86
2023-05-05T03:05:07.822Z,238.72
2023-05-05T03:06:06.906Z,239.07
2023-05-05T03:07:06.909Z,237.52
2023-05-05T03:08:06.929Z,239.77
2023-05-05T03:09:06.874Z,239.59
2023-05-05T03:10:08.126Z,238.21
2023-05-05T03:11:06.870Z,239.42
2023-05-05T03:12:06.930Z,239.42
2023-05-05T03:13:06.892Z,239.24
2023-05-05T03:14:06.773Z,238.90
2023-05-05T03:15:07.693Z,238.90
2023-05-05T03:16:06.913Z,238.38
2023-05-05T03:17:06.769Z,238.90
2023-05-05T03:18:06.746Z,238.72
2023-05-05T03:19:07.007Z,239.94
2023-05-05T03:20:07.812Z,239.94
2023-05-05T03:21:06.696Z,239.94
2023-05-05T03:22:06.683Z,239.42
2023-05-05T03:23:07.353Z,239.07
2023-05-05T03:24:06.648Z,240.64
2023-05-05T03:25:07.583Z,238.03
2023-05-05T03:26:06.691Z,239.59
2023-05-05T03:27:06.663Z,239.77
2023-05-05T03:28:06.605Z,238.72
2023-05-05T03:29:06.584Z,239.94
2023-05-05T03:30:06.965Z,238.21
2023-05-05T03:31:07.515Z,239.07
2023-05-05T03:32:06.603Z,239.77
2023-05-05T03:33:06.586Z,240.12
2023-05-05T03:34:06.584Z,239.42
2023-05-05T03:35:06.507Z,239.94
2023-05-05T03:36:07.549Z,239.77
2023-05-05T03:37:07.420Z,239.94
2023-05-05T03:38:06.488Z,241.17
2023-05-05T03:39:06.516Z,239.42
2023-05-05T03:40:06.650Z,238.72
2023-05-05T03:41:06.464Z,240.12
2023-05-05T03:42:07.422Z,241.35
2023-05-05T03:43:06.407Z,240.47
2023-05-05T03:44:06.529Z,241.17
2023-05-05T03:45:06.393Z,240.12
2023-05-05T03:46:06.418Z,240.47
2023-05-05T03:47:07.319Z,239.24
2023-05-05T03:48:06.357Z,239.77
2023-05-05T03:49:06.343Z,238.72
2023-05-05T03:50:06.431Z,240.64
2023-05-05T03:51:06.312Z,240.29
2023-05-05T03:52:06.328Z,240.82
2023-05-05T03:53:07.227Z,239.42
2023-05-05T03:54:06.379Z,240.64
2023-05-05T03:55:06.266Z,239.94
2023-05-05T03:56:06.246Z,239.07
2023-05-05T03:57:06.247Z,240.82
2023-05-05T03:58:06.253Z,239.42
2023-05-05T03:59:07.150Z,239.42
2023-05-05T04:00:06.332Z,240.82
2023-05-05T04:01:06.206Z,240.64
2023-05-05T04:02:06.239Z,240.82
2023-05-05T04:03:06.252Z,240.47
2023-05-05T04:04:07.169Z,240.82
2023-05-05T04:05:06.133Z,239.94
2023-05-05T04:06:06.150Z,239.07
2023-05-05T04:07:06.144Z,239.77
2023-05-05T04:08:06.106Z,239.24
2023-05-05T04:09:07.064Z,239.42
2023-05-05T04:10:06.227Z,240.82
2023-05-05T04:11:06.086Z,240.82
2023-05-05T04:12:06.059Z,240.82
2023-05-05T04:13:06.078Z,239.59
2023-05-05T04:14:05.991Z,239.77
2023-05-05T04:15:06.916Z,241.17
2023-05-05T04:16:06.039Z,239.42
2023-05-05T04:17:06.014Z,240.99
2023-05-05T04:18:06.031Z,239.59
2023-05-05T04:19:05.944Z,241.70
2023-05-05T04:20:07.211Z,240.99
2023-05-05T04:21:05.946Z,239.77
2023-05-05T04:22:05.964Z,240.12
2023-05-05T04:23:05.926Z,239.59
2023-05-05T04:24:05.909Z,240.64
2023-05-05T04:25:06.807Z,241.70
2023-05-05T04:26:05.900Z,240.29
2023-05-05T04:27:05.862Z,239.24
2023-05-05T04:28:05.842Z,239.77
2023-05-05T04:29:05.859Z,239.07
2023-05-05T04:30:05.931Z,241.17
2023-05-05T04:31:06.790Z,240.12
2023-05-05T04:32:05.836Z,240.99
2023-05-05T04:33:05.755Z,241.35
2023-05-05T04:34:05.771Z,240.82
2023-05-05T04:35:05.834Z,240.29
2023-05-05T04:36:05.716Z,241.17
2023-05-05T04:37:06.668Z,241.17
2023-05-05T04:38:06.677Z,242.06
2023-05-05T04:39:05.713Z,239.77
2023-05-05T04:40:05.759Z,240.82
2023-05-05T04:41:05.672Z,241.35
2023-05-05T04:42:06.680Z,241.17
2023-05-05T04:43:05.677Z,241.17
2023-05-05T04:44:05.629Z,240.12
2023-05-05T04:45:05.635Z,239.59
2023-05-05T04:46:05.622Z,240.99
2023-05-05T04:47:06.550Z,240.99
2023-05-05T04:48:05.636Z,239.77
2023-05-05T04:49:05.567Z,241.17
2023-05-05T04:50:06.767Z,240.82
2023-05-05T04:51:05.537Z,240.47
2023-05-05T04:52:06.456Z,242.41
2023-05-05T04:53:05.571Z,240.47
2023-05-05T04:54:05.498Z,241.17
2023-05-05T04:55:05.504Z,242.41
2023-05-05T04:56:05.505Z,241.17
2023-05-05T04:57:05.472Z,240.99
2023-05-05T04:58:06.394Z,240.47
2023-05-05T04:59:05.444Z,239.94
2023-05-05T05:00:05.678Z,240.64
2023-05-05T05:01:05.391Z,240.82
2023-05-05T05:02:05.481Z,241.35
2023-05-05T05:03:06.379Z,240.47
2023-05-05T05:04:05.428Z,241.17
2023-05-05T05:05:05.395Z,240.99
2023-05-05T05:06:05.378Z,241.17
2023-05-05T05:07:05.419Z,242.06
2023-05-05T05:08:06.256Z,240.47
2023-05-05T05:09:05.332Z,241.70
2023-05-05T05:10:05.446Z,242.24
2023-05-05T05:11:05.329Z,241.35
2023-05-05T05:12:05.308Z,240.47
2023-05-05T05:13:12.966Z,241.35
2023-05-05T05:14:06.201Z,241.17
2023-05-05T05:15:05.356Z,241.17
2023-05-05T05:16:05.322Z,239.59
2023-05-05T05:17:05.312Z,239.94
2023-05-05T05:18:05.264Z,241.17
2023-05-05T05:19:06.124Z,240.29
2023-05-05T05:20:05.218Z,240.47
2023-05-05T05:21:05.163Z,241.52
2023-05-05T05:22:05.182Z,240.82
2023-05-05T05:23:05.170Z,241.52
2023-05-05T05:24:06.088Z,239.94
2023-05-05T05:25:05.208Z,241.17
2023-05-05T05:26:05.133Z,241.17
2023-05-05T05:27:05.820Z,239.77
2023-05-05T05:28:09.683Z,241.52
2023-05-05T05:29:07.581Z,239.77
2023-05-05T05:30:05.078Z,241.17
2023-05-05T05:31:05.025Z,241.35
2023-05-05T05:32:05.173Z,240.47
2023-05-05T05:33:05.111Z,240.64
2023-05-05T05:34:05.946Z,241.52
2023-05-05T05:35:05.069Z,241.17
2023-05-05T05:36:04.957Z,240.82
2023-05-05T05:37:04.984Z,240.47
2023-05-05T05:38:04.947Z,240.47
2023-05-05T05:39:05.874Z,240.47
2023-05-05T05:40:06.109Z,239.07
2023-05-05T05:41:04.947Z,240.29
2023-05-05T05:42:04.894Z,240.29
2023-05-05T05:43:05.061Z,240.82
2023-05-05T05:44:05.817Z,239.59
2023-05-05T05:45:04.910Z,238.72
2023-05-05T05:46:07.610Z,240.29
2023-05-05T05:47:04.855Z,239.42
2023-05-05T05:48:04.873Z,239.77
2023-05-05T05:49:04.776Z,239.59
2023-05-05T05:50:06.986Z,238.38
2023-05-05T05:51:04.830Z,240.82
2023-05-05T05:52:04.808Z,239.07
2023-05-05T05:53:04.761Z,239.07
2023-05-05T05:54:04.916Z,240.12
2023-05-05T05:55:05.706Z,237.35
2023-05-05T05:56:04.724Z,238.38
2023-05-05T05:57:04.749Z,238.55
2023-05-05T05:58:05.668Z,238.03
2023-05-05T05:59:04.707Z,238.03
2023-05-05T06:00:04.730Z,238.21
2023-05-05T06:01:05.626Z,237.86
2023-05-05T06:02:04.721Z,238.55
2023-05-05T06:03:04.741Z,237.35
2023-05-05T06:04:04.639Z,238.21
2023-05-05T06:05:04.617Z,237.69
2023-05-05T06:06:04.618Z,237.01
2023-05-05T06:07:05.499Z,235.99
2023-05-05T06:08:04.557Z,236.50
2023-05-05T06:09:04.562Z,237.01
2023-05-05T06:10:15.000Z,236.33
2023-05-05T06:11:06.026Z,237.01
2023-05-05T06:12:04.534Z,236.67
2023-05-05T06:13:05.773Z,235.65
2023-05-05T06:14:04.486Z,235.31
2023-05-05T06:15:05.443Z,235.99
2023-05-05T06:16:04.470Z,235.31
2023-05-05T06:17:04.451Z,233.81
2023-05-05T06:18:05.434Z,234.81
2023-05-05T06:19:04.444Z,232.98
2023-05-05T06:20:04.391Z,236.84
2023-05-05T06:21:04.429Z,232.00
2023-05-05T06:22:04.393Z,233.98
2023-05-05T06:23:05.280Z,233.81
2023-05-05T06:24:04.336Z,234.98
2023-05-05T06:25:05.308Z,233.81
2023-05-05T06:26:04.404Z,233.64
2023-05-05T06:27:04.354Z,233.15
2023-05-05T06:28:05.246Z,233.64
2023-05-05T06:29:04.770Z,232.32
2023-05-05T06:30:05.229Z,231.35
2023-05-05T06:31:04.291Z,230.38
2023-05-05T06:32:04.312Z,231.02
2023-05-05T06:33:04.281Z,230.38
2023-05-05T06:34:05.172Z,229.09
2023-05-05T06:35:04.862Z,228.62
2023-05-05T06:36:04.227Z,229.25
2023-05-05T06:37:04.192Z,230.05
2023-05-05T06:38:04.244Z,228.77
2023-05-05T06:39:04.167Z,228.46
2023-05-05T06:40:05.166Z,229.41
2023-05-05T06:41:05.209Z,226.41
2023-05-05T06:42:04.224Z,227.82
2023-05-05T06:43:04.207Z,226.26
2023-05-05T06:44:05.194Z,225.49
2023-05-05T06:45:04.179Z,225.95
2023-05-05T06:46:05.030Z,225.02
2023-05-05T06:47:05.425Z,226.26
2023-05-05T06:48:05.109Z,225.02
2023-05-05T06:49:04.094Z,225.02
2023-05-05T06:50:05.111Z,223.65
2023-05-05T06:51:05.019Z,224.72
2023-05-05T06:52:05.048Z,223.19
2023-05-05T06:53:05.047Z,223.65
2023-05-05T06:54:04.004Z,220.95
2023-05-05T06:55:04.031Z,221.84
2023-05-05T06:56:04.207Z,221.69
2023-05-05T06:57:04.011Z,221.39
2023-05-05T06:58:04.880Z,220.95
2023-05-05T06:59:03.916Z,219.62
2023-05-05T07:00:03.917Z,218.60
2023-05-05T07:01:03.937Z,220.36
2023-05-05T07:02:03.931Z,218.75
2023-05-05T07:03:03.961Z,218.46
2023-05-05T07:04:05.798Z,218.60
2023-05-05T07:05:05.045Z,219.04
2023-05-05T07:06:04.800Z,219.04
2023-05-05T07:07:03.863Z,218.02
2023-05-05T07:08:04.769Z,217.88
2023-05-05T07:09:03.848Z,217.88
2023-05-05T07:10:04.697Z,218.17
2023-05-05T07:11:03.827Z,217.30
2023-05-05T07:12:03.797Z,215.74
2023-05-05T07:13:03.781Z,216.73
2023-05-05T07:14:03.765Z,216.45
2023-05-05T07:15:15.377Z,217.59
2023-05-05T07:16:05.337Z,215.60
2023-05-05T07:17:03.691Z,217.30
2023-05-05T07:18:03.733Z,216.87
2023-05-05T07:19:03.672Z,216.87
2023-05-05T07:20:04.608Z,216.73
2023-05-05T07:21:03.647Z,215.60
2023-05-05T07:22:03.636Z,215.31
2023-05-05T07:23:03.680Z,215.74
2023-05-05T07:24:03.605Z,214.61
2023-05-05T07:25:03.610Z,215.03
2023-05-05T07:26:04.562Z,214.47
2023-05-05T07:27:03.593Z,214.33
2023-05-05T07:28:03.597Z,213.36
2023-05-05T07:29:03.535Z,212.81
2023-05-05T07:30:07.901Z,212.54
2023-05-05T07:31:05.963Z,212.54
2023-05-05T07:32:03.615Z,211.71
2023-05-05T07:33:03.551Z,211.44
2023-05-05T07:34:03.490Z,211.17
2023-05-05T07:35:03.443Z,209.83
2023-05-05T07:36:04.421Z,210.09
2023-05-05T07:37:04.440Z,210.09
2023-05-05T07:38:03.407Z,209.29
2023-05-05T07:39:03.520Z,209.56
2023-05-05T07:40:03.377Z,208.76
2023-05-05T07:41:03.420Z,209.03
2023-05-05T07:42:04.317Z,209.83
2023-05-05T07:43:03.342Z,207.84
2023-05-05T07:44:03.334Z,207.45
2023-05-05T07:45:03.370Z,206.28
2023-05-05T07:46:03.427Z,206.67
2023-05-05T07:47:04.205Z,206.80
2023-05-05T07:48:03.304Z,206.93
2023-05-05T07:49:03.278Z,204.99
2023-05-05T07:50:03.270Z,205.63
2023-05-05T07:51:03.240Z,204.87
2023-05-05T07:52:03.339Z,204.87
2023-05-05T07:53:13.690Z,203.98
2023-05-05T07:54:04.799Z,203.10
2023-05-05T07:55:03.226Z,204.49
2023-05-05T07:56:04.174Z,202.47
2023-05-05T07:57:04.153Z,202.85
2023-05-05T07:58:04.134Z,203.73
2023-05-05T07:59:04.134Z,202.35
2023-05-05T08:00:03.175Z,200.87
2023-05-05T08:01:04.237Z,200.50
2023-05-05T08:02:03.088Z,199.89
2023-05-05T08:03:03.260Z,201.11
2023-05-05T08:04:03.181Z,200.75
2023-05-05T08:05:04.030Z,200.01
2023-05-05T08:06:03.061Z,199.29
2023-05-05T08:07:03.045Z,198.81
2023-05-05T08:08:03.081Z,198.45
2023-05-05T08:09:03.002Z,197.73
2023-05-05T08:10:03.026Z,197.97
2023-05-05T08:11:03.923Z,197.50
2023-05-05T08:12:04.005Z,196.79
2023-05-05T08:13:03.028Z,196.32
2023-05-05T08:14:02.992Z,195.85
2023-05-05T08:15:02.997Z,195.27
2023-05-05T08:16:03.956Z,195.04
2023-05-05T08:17:02.985Z,194.12
2023-05-05T08:18:02.991Z,193.78
2023-05-05T08:19:02.976Z,192.87
2023-05-05T08:20:02.950Z,192.87
2023-05-05T08:21:03.810Z,191.97
2023-05-05T08:22:02.920Z,191.52
2023-05-05T08:23:02.893Z,190.97
2023-05-05T08:24:02.815Z,190.75
2023-05-05T08:25:02.868Z,189.98
2023-05-05T08:26:04.019Z,189.10
2023-05-05T08:27:02.784Z,190.09
2023-05-05T08:29:00.290Z,296.28
2023-05-05T08:30:00.268Z,253.62
2023-05-05T08:31:01.203Z,233.98
2023-05-05T08:32:00.361Z,218.75
2023-05-05T08:33:00.322Z,211.99
2023-05-05T08:34:00.210Z,207.58
2023-05-05T08:35:00.188Z,201.61
2023-05-05T08:36:00.161Z,199.17
2023-05-05T08:37:01.142Z,197.61
2023-05-05T08:38:00.164Z,194.58
2023-05-05T08:39:00.393Z,192.31
2023-05-05T08:40:00.375Z,191.52
2023-05-05T08:41:00.164Z,190.64
2023-05-05T08:42:01.041Z,189.10
2023-05-05T08:43:00.145Z,188.02
2023-05-05T08:44:00.103Z,187.28
2023-05-05T08:45:00.155Z,186.96
2023-05-05T08:46:00.037Z,186.22
2023-05-05T08:47:01.075Z,185.07
2023-05-05T08:48:00.090Z,185.70
2023-05-05T08:49:00.019Z,185.90
2023-05-05T08:50:00.055Z,185.08
2023-05-05T08:51:01.926Z,183.66
2023-05-05T08:52:00.210Z,184.07
2023-05-05T08:53:00.031Z,184.27
2023-05-05T08:53:59.942Z,182.26
2023-05-05T08:55:00.012Z,182.26
2023-05-05T08:55:59.916Z,181.87
2023-05-05T08:56:59.932Z,180.88
2023-05-05T08:58:00.956Z,179.91
2023-05-05T08:58:59.964Z,179.53
2023-05-05T08:59:59.921Z,178.57
2023-05-05T09:00:59.913Z,178.38
2023-05-05T09:01:59.898Z,177.81
2023-05-05T09:03:00.022Z,177.06
2023-05-05T09:04:00.773Z,175.58
2023-05-05T09:04:59.853Z,175.39
2023-05-05T09:05:59.839Z,174.84
2023-05-05T09:06:59.843Z,173.40
2023-05-05T09:07:59.774Z,173.04
2023-05-05T09:08:59.852Z,173.40
2023-05-05T09:10:00.719Z,172.86
2023-05-05T09:10:59.789Z,171.79
2023-05-05T09:12:00.460Z,170.92
2023-05-05T09:12:59.762Z,169.88
2023-05-05T09:13:59.672Z,170.40
2023-05-05T09:14:59.746Z,169.36
2023-05-05T09:16:00.636Z,168.34
2023-05-05T09:16:59.680Z,168.34
2023-05-05T09:17:59.657Z,167.33
2023-05-05T09:18:59.662Z,167.16
2023-05-05T09:19:59.609Z,167.50
2023-05-05T09:21:00.540Z,167.67
2023-05-05T09:21:59.590Z,166.01
2023-05-05T09:22:59.594Z,166.01
2023-05-05T09:24:07.298Z,166.01
2023-05-05T09:25:01.254Z,165.35
2023-05-05T09:26:00.497Z,164.54
2023-05-05T09:26:59.520Z,164.70
2023-05-05T09:27:59.533Z,164.86
2023-05-05T09:28:59.499Z,164.05
2023-05-05T09:29:59.506Z,163.89
2023-05-05T09:31:00.401Z,163.26
2023-05-05T09:31:59.493Z,163.41
2023-05-05T09:32:59.575Z,162.62
2023-05-05T09:33:59.468Z,161.99
2023-05-05T09:34:59.436Z,161.52
2023-05-05T09:35:59.429Z,161.52
2023-05-05T09:37:00.369Z,160.44
2023-05-05T09:37:59.405Z,162.46
2023-05-05T09:38:59.370Z,159.37
2023-05-05T09:39:59.424Z,159.22
2023-05-05T09:40:59.336Z,158.47
2023-05-05T09:41:59.371Z,157.42
2023-05-05T09:43:00.276Z,158.62
2023-05-05T09:43:59.288Z,158.32
2023-05-05T09:45:00.008Z,157.28
2023-05-05T09:45:59.294Z,157.28
2023-05-05T09:46:59.274Z,156.98
2023-05-05T09:48:00.906Z,155.81
2023-05-05T09:48:59.250Z,155.81
2023-05-05T09:49:59.245Z,154.38
2023-05-05T09:50:59.213Z,153.81
2023-05-05T09:51:59.192Z,152.97
2023-05-05T09:53:00.145Z,152.13
2023-05-05T09:53:59.179Z,151.72
2023-05-05T09:54:59.214Z,150.36
2023-05-05T09:55:59.160Z,150.49
2023-05-05T09:56:59.178Z,149.15
2023-05-05T09:58:00.123Z,148.49
2023-05-05T09:58:59.234Z,147.84
2023-05-05T09:59:59.078Z,146.29
2023-05-05T10:00:59.133Z,145.78
2023-05-05T10:01:59.175Z,144.65
2023-05-05T10:03:00.075Z,144.27
2023-05-05T10:03:59.090Z,143.04
2023-05-05T10:05:00.340Z,142.07
2023-05-05T10:05:59.029Z,141.11
2023-05-05T10:06:59.038Z,140.40
2023-05-05T10:07:59.934Z,140.52
2023-05-05T10:08:58.973Z,139.82
2023-05-05T10:09:58.983Z,139.24
2023-05-05T10:10:58.948Z,138.43
2023-05-05T10:11:59.049Z,137.97
2023-05-05T10:12:59.960Z,137.29
2023-05-05T10:13:58.963Z,137.07
2023-05-05T10:14:58.971Z,136.73
2023-05-05T10:15:58.957Z,135.85
2023-05-05T10:16:58.906Z,135.85
2023-05-05T10:18:07.624Z,135.41
2023-05-05T10:19:00.382Z,135.63
2023-05-05T10:19:58.863Z,135.41
2023-05-05T10:20:58.847Z,135.19
2023-05-05T10:21:58.856Z,134.75
2023-05-05T10:22:58.815Z,134.54
2023-05-05T10:23:59.792Z,133.68
2023-05-05T10:24:58.778Z,134.11
2023-05-05T10:25:58.745Z,133.04
2023-05-05T10:26:58.786Z,132.20
2023-05-05T10:27:58.769Z,131.58
2023-05-05T10:28:59.690Z,131.58
2023-05-05T10:29:58.843Z,130.35
2023-05-05T10:30:58.740Z,129.24
2023-05-05T10:31:58.800Z,129.14
2023-05-05T10:33:17.377Z,127.38
2023-05-05T10:34:00.729Z,127.38
2023-05-05T10:34:58.650Z,126.32
2023-05-05T10:35:58.677Z,125.28
2023-05-05T10:36:58.788Z,123.80
2023-05-05T10:37:58.662Z,123.25
2023-05-05T10:38:58.596Z,121.82
2023-05-05T10:39:59.526Z,120.76
2023-05-05T10:40:58.558Z,120.16
2023-05-05T10:41:58.586Z,119.22
2023-05-05T10:42:58.573Z,116.16
2023-05-05T10:43:58.563Z,113.56
2023-05-05T10:44:59.457Z,111.37
2023-05-05T10:45:58.537Z,107.79
2023-05-05T10:46:58.594Z,104.69
2023-05-05T10:47:58.584Z,102.13
2023-05-05T10:48:58.559Z,98.82
2023-05-05T10:49:59.426Z,94.85
2023-05-05T10:50:58.519Z,92.21
2023-05-05T10:51:58.478Z,88.69
2023-05-05T10:52:58.496Z,85.78
2023-05-05T10:53:58.441Z,82.00
2023-05-05T10:54:59.370Z,78.62
2023-05-05T10:55:58.472Z,75.23
2023-05-05T10:56:58.432Z,72.24
2023-05-05T10:57:58.434Z,69.60
2023-05-05T10:59:00.461Z,67.20
2023-05-05T10:59:58.414Z,64.61
2023-05-05T11:00:59.312Z,62.72
2023-05-05T11:01:58.322Z,61.30
2023-05-05T11:02:58.915Z,59.64
2023-05-05T11:03:58.381Z,57.79
2023-05-05T11:04:58.309Z,56.24
2023-05-05T11:05:59.236Z,54.44
2023-05-05T11:06:58.290Z,52.80
2023-05-05T11:07:58.293Z,50.97
2023-05-05T11:08:58.269Z,49.34
2023-05-05T11:09:58.323Z,48.07
2023-05-05T11:10:58.330Z,46.89
2023-05-05T11:11:59.171Z,45.61
2023-05-05T11:12:58.239Z,44.64
2023-05-05T11:13:58.220Z,44.26
2023-05-05T11:14:58.188Z,44.17
2023-05-05T11:15:58.262Z,43.98
2023-05-05T11:16:59.216Z,43.66
2023-05-05T11:17:58.245Z,42.77
2023-05-05T11:18:58.206Z,41.79
2023-05-05T11:19:58.154Z,41.17
2023-05-05T11:20:58.164Z,40.89
2023-05-05T11:21:58.123Z,41.38
2023-05-05T11:22:59.066Z,41.92
2023-05-05T11:23:58.098Z,42.56
2023-05-05T11:24:58.080Z,43.39
2023-05-05T11:25:58.121Z,43.71
2023-05-05T11:26:58.062Z,43.75
2023-05-05T11:27:58.092Z,43.30
2023-05-05T11:28:59.013Z,42.77
2023-05-05T11:29:58.264Z,41.83
2023-05-05T11:30:58.388Z,40.93
2023-05-05T11:31:58.023Z,40.46
2023-05-05T11:32:58.053Z,39.88
2023-05-05T11:33:58.035Z,39.81
2023-05-05T11:34:58.954Z,40.23
2023-05-05T11:35:57.949Z,40.66
2023-05-05T11:36:58.099Z,41.54
2023-05-05T11:37:57.955Z,42.43
2023-05-05T11:38:57.946Z,43.21
2023-05-05T11:39:58.886Z,44.08
2023-05-05T11:40:57.890Z,44.78
2023-05-05T11:41:57.922Z,45.51
2023-05-05T11:42:57.993Z,46.11
2023-05-05T11:43:57.936Z,46.32
2023-05-05T11:44:58.785Z,46.78
2023-05-05T11:45:57.930Z,46.99
2023-05-05T11:46:59.540Z,47.31
2023-05-05T11:47:57.888Z,47.69
2023-05-05T11:48:57.846Z,47.52
2023-05-05T11:49:58.757Z,47.42
2023-05-05T11:50:57.775Z,47.52
2023-05-05T11:51:57.826Z,47.58
2023-05-05T11:52:57.770Z,47.55
2023-05-05T11:53:59.124Z,47.58
2023-05-05T11:54:57.774Z,47.52
2023-05-05T11:55:58.657Z,47.26
2023-05-05T11:56:57.750Z,47.07
2023-05-05T11:57:57.823Z,47.10
2023-05-05T11:58:57.720Z,46.99
2023-05-05T11:59:57.711Z,46.42
2023-05-05T12:00:58.625Z,46.32
2023-05-05T12:01:57.708Z,46.16
2023-05-05T12:02:57.731Z,46.37
2023-05-05T12:03:57.883Z,46.42
2023-05-05T12:04:57.702Z,46.94
2023-05-05T12:05:57.672Z,47.58
2023-05-05T12:06:58.567Z,48.46
2023-05-05T12:07:57.637Z,49.46
2023-05-05T12:08:57.596Z,51.06
2023-05-05T12:09:57.607Z,51.28
2023-05-05T12:10:57.571Z,51.18
2023-05-05T12:11:58.609Z,50.41
2023-05-05T12:12:57.734Z,48.97
2023-05-05T12:13:57.635Z,47.55
2023-05-05T12:14:57.547Z,46.78
2023-05-05T12:15:57.532Z,45.41
2023-05-05T12:16:58.193Z,44.08
2023-05-05T12:18:00.119Z,42.77
2023-05-05T12:18:57.504Z,41.83
2023-05-05T12:19:57.488Z,40.78
2023-05-05T12:20:57.500Z,39.84
2023-05-05T12:21:57.481Z,39.14
2023-05-05T12:22:58.165Z,38.14
2023-05-05T12:23:58.394Z,37.09
2023-05-05T12:24:57.417Z,36.10
2023-05-05T12:25:57.402Z,34.96
2023-05-05T12:26:57.385Z,33.97
2023-05-05T12:27:57.421Z,32.85
2023-05-05T12:28:58.317Z,32.02
2023-05-05T12:29:57.396Z,31.21
2023-05-05T12:30:57.463Z,30.75
2023-05-05T12:31:57.408Z,29.77
2023-05-05T12:32:57.351Z,29.13